CheckWX is a tool to help pilots better visualize weather data.  It is not intended as a substitute for an official pre-flight weather briefing.

12:23:08 UTC

ESNV METAR
Vilhelmina Airport
Sweden
Current

33 mins ago

ESNV 221150Z AUTO 19006KT 160V220 9999 -PL SCT012/// OVC024/// M05/M06 Q1027
Observed
Feb-22 @ 11:50 UTC
Wind
  • 190° at 6 KTS
Visibility
10,000+ meters
Flight Rules
MVFR
Cloud Levels
  • Scattered at 1,200' AGL
  • Overcast at 2,400' AGL
Temperature
-5°C / 23°F
Dewpoint
-6°C / 21°F
Humidity
93%
Altimeter
30.32" Hg
Pressure
1026.92 hPa
Previous

1 hour ago

ESNV 221120Z 19008KT 5000 -SN BKN017 OVC028 M05/M06 Q1028
Observed
Feb-22 @ 11:20 UTC
Wind
  • 190° at 8 KTS
Visibility
5,005 meters
Flight Rules
MVFR
Conditions
Light Snow
Cloud Levels
  • Broken at 1,700' AGL
  • Overcast at 2,800' AGL
Temperature
-5°C / 23°F
Dewpoint
-6°C / 21°F
Humidity
93%
Altimeter
30.35" Hg
Pressure
1027.92 hPa
Previous

2 hours ago

ESNV 221050Z 19008KT 8000 -SN BKN013 OVC030 M05/M06 Q1028
Observed
Feb-22 @ 10:50 UTC
Wind
  • 190° at 8 KTS
Visibility
7,998 meters
Flight Rules
MVFR
Conditions
Light Snow
Cloud Levels
  • Broken at 1,300' AGL
  • Overcast at 3,000' AGL
Temperature
-5°C / 23°F
Dewpoint
-6°C / 21°F
Humidity
93%
Altimeter
30.35" Hg
Pressure
1027.92 hPa